sensor_id;sensor_type;location;lat;lon;timestamp;P1;durP1;ratioP1;P2;durP2;ratioP2
8247;SDS011;4164;49.844;8.830;2023-03-03T00:01:44;23.53;;;12.13;;
8247;SDS011;4164;49.844;8.830;2023-03-03T00:04:09;20.17;;;10.17;;
8247;SDS011;4164;49.844;8.830;2023-03-03T00:06:35;20.03;;;10.63;;
8247;SDS011;4164;49.844;8.830;2023-03-03T00:09:00;20.70;;;12.03;;
8247;SDS011;4164;49.844;8.830;2023-03-03T00:11:26;22.90;;;11.97;;
8247;SDS011;4164;49.844;8.830;2023-03-03T00:13:52;19.70;;;11.50;;
8247;SDS011;4164;49.844;8.830;2023-03-03T00:18:48;25.00;;;14.17;;
8247;SDS011;4164;49.844;8.830;2023-03-03T00:21:21;26.40;;;14.17;;
8247;SDS011;4164;49.844;8.830;2023-03-03T00:23:53;23.73;;;14.13;;
8247;SDS011;4164;49.844;8.830;2023-03-03T00:26:34;21.73;;;11.80;;
8247;SDS011;4164;49.844;8.830;2023-03-03T00:29:01;23.97;;;11.40;;
8247;SDS011;4164;49.844;8.830;2023-03-03T00:31:50;20.63;;;10.70;;
8247;SDS011;4164;49.844;8.830;2023-03-03T00:34:19;20.63;;;10.87;;
8247;SDS011;4164;49.844;8.830;2023-03-03T00:36:53;25.10;;;11.83;;
8247;SDS011;4164;49.844;8.830;2023-03-03T00:39:28;18.90;;;10.23;;
8247;SDS011;4164;49.844;8.830;2023-03-03T00:41:57;21.40;;;11.60;;
8247;SDS011;4164;49.844;8.830;2023-03-03T00:44:32;33.70;;;16.07;;
8247;SDS011;4164;49.844;8.830;2023-03-03T00:47:25;34.57;;;15.73;;
8247;SDS011;4164;49.844;8.830;2023-03-03T00:49:54;25.43;;;14.80;;
8247;SDS011;4164;49.844;8.830;2023-03-03T00:52:29;23.50;;;13.80;;
8247;SDS011;4164;49.844;8.830;2023-03-03T00:54:56;22.07;;;12.47;;
8247;SDS011;4164;49.844;8.830;2023-03-03T00:57:21;19.57;;;10.50;;
8247;SDS011;4164;49.844;8.830;2023-03-03T00:59:47;24.60;;;12.27;;
8247;SDS011;4164;49.844;8.830;2023-03-03T01:02:12;22.90;;;11.43;;
8247;SDS011;4164;49.844;8.830;2023-03-03T01:04:38;23.00;;;11.20;;
8247;SDS011;4164;49.844;8.830;2023-03-03T01:07:05;18.87;;;10.47;;
8247;SDS011;4164;49.844;8.830;2023-03-03T01:09:31;22.63;;;11.20;;
8247;SDS011;4164;49.844;8.830;2023-03-03T01:11:56;19.20;;;11.00;;
8247;SDS011;4164;49.844;8.830;2023-03-03T01:14:22;19.67;;;10.93;;
8247;SDS011;4164;49.844;8.830;2023-03-03T01:16:47;16.57;;;9.03;;
8247;SDS011;4164;49.844;8.830;2023-03-03T01:19:15;29.67;;;14.40;;
8247;SDS011;4164;49.844;8.830;2023-03-03T01:21:40;21.77;;;12.17;;
8247;SDS011;4164;49.844;8.830;2023-03-03T01:24:06;23.23;;;12.43;;
8247;SDS011;4164;49.844;8.830;2023-03-03T01:26:31;27.67;;;12.17;;
8247;SDS011;4164;49.844;8.830;2023-03-03T01:28:57;19.43;;;10.83;;
8247;SDS011;4164;49.844;8.830;2023-03-03T01:31:22;21.97;;;12.13;;
8247;SDS011;4164;49.844;8.830;2023-03-03T01:33:48;26.57;;;13.27;;
8247;SDS011;4164;49.844;8.830;2023-03-03T01:36:14;22.57;;;13.03;;
8247;SDS011;4164;49.844;8.830;2023-03-03T01:38:39;26.27;;;13.77;;
8247;SDS011;4164;49.844;8.830;2023-03-03T01:41:05;17.17;;;10.27;;
8247;SDS011;4164;49.844;8.830;2023-03-03T01:43:31;21.37;;;11.60;;
8247;SDS011;4164;49.844;8.830;2023-03-03T01:48:30;36.97;;;16.73;;
8247;SDS011;4164;49.844;8.830;2023-03-03T01:51:01;30.30;;;15.07;;
8247;SDS011;4164;49.844;8.830;2023-03-03T01:53:32;34.13;;;16.23;;
8247;SDS011;4164;49.844;8.830;2023-03-03T01:55:59;23.70;;;13.17;;
8247;SDS011;4164;49.844;8.830;2023-03-03T01:58:30;26.97;;;11.70;;
8247;SDS011;4164;49.844;8.830;2023-03-03T02:01:01;23.83;;;11.63;;
8247;SDS011;4164;49.844;8.830;2023-03-03T02:03:31;34.50;;;15.63;;
8247;SDS011;4164;49.844;8.830;2023-03-03T02:05:58;38.37;;;17.87;;
8247;SDS011;4164;49.844;8.830;2023-03-03T02:08:30;45.07;;;21.43;;
8247;SDS011;4164;49.844;8.830;2023-03-03T02:11:03;38.70;;;19.13;;
8247;SDS011;4164;49.844;8.830;2023-03-03T02:13:30;45.37;;;20.17;;
8247;SDS011;4164;49.844;8.830;2023-03-03T02:15:56;36.87;;;17.70;;
8247;SDS011;4164;49.844;8.830;2023-03-03T02:18:23;29.77;;;15.57;;
8247;SDS011;4164;49.844;8.830;2023-03-03T02:28:26;19.93;;;10.03;;
8247;SDS011;4164;49.844;8.830;2023-03-03T02:30:54;23.90;;;12.03;;
8247;SDS011;4164;49.844;8.830;2023-03-03T02:33:20;25.63;;;12.93;;
8247;SDS011;4164;49.844;8.830;2023-03-03T02:35:47;21.60;;;12.57;;
8247;SDS011;4164;49.844;8.830;2023-03-03T02:44:02;21.43;;;11.17;;
8247;SDS011;4164;49.844;8.830;2023-03-03T02:46:32;18.47;;;11.27;;
8247;SDS011;4164;49.844;8.830;2023-03-03T02:49:03;20.90;;;10.23;;
8247;SDS011;4164;49.844;8.830;2023-03-03T02:51:29;18.33;;;10.07;;
8247;SDS011;4164;49.844;8.830;2023-03-03T02:53:55;18.33;;;10.13;;
8247;SDS011;4164;49.844;8.830;2023-03-03T02:56:21;17.33;;;10.50;;
8247;SDS011;4164;49.844;8.830;2023-03-03T02:58:47;16.17;;;9.57;;
8247;SDS011;4164;49.844;8.830;2023-03-03T03:01:12;19.73;;;10.37;;
8247;SDS011;4164;49.844;8.830;2023-03-03T03:03:38;18.40;;;10.37;;
8247;SDS011;4164;49.844;8.830;2023-03-03T03:06:03;19.13;;;10.07;;
8247;SDS011;4164;49.844;8.830;2023-03-03T03:08:29;19.03;;;10.50;;
8247;SDS011;4164;49.844;8.830;2023-03-03T03:10:55;19.03;;;10.20;;
8247;SDS011;4164;49.844;8.830;2023-03-03T03:13:23;19.57;;;11.00;;
8247;SDS011;4164;49.844;8.830;2023-03-03T03:15:49;21.90;;;10.33;;
8247;SDS011;4164;49.844;8.830;2023-03-03T03:18:15;19.67;;;9.93;;
8247;SDS011;4164;49.844;8.830;2023-03-03T03:20:41;15.67;;;9.50;;
8247;SDS011;4164;49.844;8.830;2023-03-03T03:23:08;19.57;;;10.20;;
8247;SDS011;4164;49.844;8.830;2023-03-03T03:25:34;20.47;;;10.60;;
8247;SDS011;4164;49.844;8.830;2023-03-03T03:28:01;20.00;;;9.90;;
8247;SDS011;4164;49.844;8.830;2023-03-03T03:30:27;19.90;;;9.90;;
8247;SDS011;4164;49.844;8.830;2023-03-03T03:32:53;21.10;;;9.97;;
8247;SDS011;4164;49.844;8.830;2023-03-03T03:35:18;17.63;;;10.30;;
8247;SDS011;4164;49.844;8.830;2023-03-03T03:37:44;16.20;;;10.10;;
8247;SDS011;4164;49.844;8.830;2023-03-03T03:40:09;18.47;;;9.77;;
8247;SDS011;4164;49.844;8.830;2023-03-03T03:42:36;18.63;;;10.50;;
8247;SDS011;4164;49.844;8.830;2023-03-03T03:45:05;17.80;;;9.97;;
8247;SDS011;4164;49.844;8.830;2023-03-03T03:47:31;21.20;;;10.57;;
8247;SDS011;4164;49.844;8.830;2023-03-03T03:49:56;19.73;;;10.30;;
8247;SDS011;4164;49.844;8.830;2023-03-03T03:52:22;21.80;;;10.63;;
8247;SDS011;4164;49.844;8.830;2023-03-03T03:54:48;18.80;;;10.63;;
8247;SDS011;4164;49.844;8.830;2023-03-03T03:57:13;19.73;;;9.73;;
8247;SDS011;4164;49.844;8.830;2023-03-03T03:59:39;20.93;;;11.37;;
8247;SDS011;4164;49.844;8.830;2023-03-03T04:02:04;22.27;;;12.23;;
8247;SDS011;4164;49.844;8.830;2023-03-03T04:04:30;24.77;;;14.80;;
8247;SDS011;4164;49.844;8.830;2023-03-03T04:06:55;57.93;;;26.90;;
8247;SDS011;4164;49.844;8.830;2023-03-03T04:09:21;56.67;;;26.27;;
8247;SDS011;4164;49.844;8.830;2023-03-03T04:11:47;64.07;;;29.30;;
8247;SDS011;4164;49.844;8.830;2023-03-03T04:14:12;74.00;;;30.93;;
8247;SDS011;4164;49.844;8.830;2023-03-03T04:16:38;56.87;;;26.63;;
8247;SDS011;4164;49.844;8.830;2023-03-03T04:19:03;47.57;;;22.83;;
8247;SDS011;4164;49.844;8.830;2023-03-03T04:21:29;30.63;;;15.00;;
8247;SDS011;4164;49.844;8.830;2023-03-03T04:23:54;26.33;;;14.27;;
8247;SDS011;4164;49.844;8.830;2023-03-03T04:26:20;30.60;;;14.53;;
8247;SDS011;4164;49.844;8.830;2023-03-03T04:28:45;25.80;;;12.73;;
8247;SDS011;4164;49.844;8.830;2023-03-03T04:31:11;26.03;;;12.13;;
8247;SDS011;4164;49.844;8.830;2023-03-03T04:33:37;20.57;;;12.10;;
8247;SDS011;4164;49.844;8.830;2023-03-03T04:36:03;24.93;;;13.73;;
8247;SDS011;4164;49.844;8.830;2023-03-03T04:38:28;24.00;;;14.57;;
8247;SDS011;4164;49.844;8.830;2023-03-03T04:40:55;28.33;;;12.83;;
8247;SDS011;4164;49.844;8.830;2023-03-03T04:43:21;20.03;;;12.67;;
8247;SDS011;4164;49.844;8.830;2023-03-03T04:45:46;23.40;;;13.33;;
8247;SDS011;4164;49.844;8.830;2023-03-03T04:48:12;24.30;;;13.53;;
8247;SDS011;4164;49.844;8.830;2023-03-03T04:50:38;21.23;;;12.37;;
8247;SDS011;4164;49.844;8.830;2023-03-03T04:53:03;23.10;;;13.07;;
8247;SDS011;4164;49.844;8.830;2023-03-03T04:55:29;23.67;;;13.83;;
8247;SDS011;4164;49.844;8.830;2023-03-03T04:57:55;27.47;;;16.47;;
8247;SDS011;4164;49.844;8.830;2023-03-03T05:00:20;25.23;;;13.90;;
8247;SDS011;4164;49.844;8.830;2023-03-03T05:02:46;23.90;;;13.23;;
8247;SDS011;4164;49.844;8.830;2023-03-03T05:05:12;46.20;;;22.03;;
8247;SDS011;4164;49.844;8.830;2023-03-03T05:07:38;55.40;;;25.33;;
8247;SDS011;4164;49.844;8.830;2023-03-03T05:10:05;22.83;;;12.67;;
8247;SDS011;4164;49.844;8.830;2023-03-03T05:12:31;24.27;;;12.90;;
8247;SDS011;4164;49.844;8.830;2023-03-03T05:14:57;33.83;;;19.07;;
8247;SDS011;4164;49.844;8.830;2023-03-03T05:17:22;28.37;;;15.83;;
8247;SDS011;4164;49.844;8.830;2023-03-03T05:19:48;25.63;;;13.63;;
8247;SDS011;4164;49.844;8.830;2023-03-03T05:22:13;26.73;;;14.00;;
8247;SDS011;4164;49.844;8.830;2023-03-03T05:24:39;27.47;;;13.93;;
8247;SDS011;4164;49.844;8.830;2023-03-03T05:27:06;25.17;;;13.13;;
8247;SDS011;4164;49.844;8.830;2023-03-03T05:29:32;24.70;;;14.57;;
8247;SDS011;4164;49.844;8.830;2023-03-03T05:31:58;32.63;;;15.80;;
8247;SDS011;4164;49.844;8.830;2023-03-03T05:34:23;29.07;;;17.00;;
8247;SDS011;4164;49.844;8.830;2023-03-03T05:36:49;28.37;;;14.80;;
8247;SDS011;4164;49.844;8.830;2023-03-03T05:39:15;35.47;;;19.37;;
8247;SDS011;4164;49.844;8.830;2023-03-03T05:41:41;39.87;;;22.63;;
8247;SDS011;4164;49.844;8.830;2023-03-03T05:44:06;56.20;;;32.20;;
8247;SDS011;4164;49.844;8.830;2023-03-03T05:46:32;41.17;;;24.00;;
8247;SDS011;4164;49.844;8.830;2023-03-03T05:48:58;62.00;;;27.10;;
8247;SDS011;4164;49.844;8.830;2023-03-03T05:51:23;59.30;;;28.57;;
8247;SDS011;4164;49.844;8.830;2023-03-03T05:53:49;34.57;;;17.17;;
8247;SDS011;4164;49.844;8.830;2023-03-03T05:56:15;48.87;;;22.53;;
8247;SDS011;4164;49.844;8.830;2023-03-03T05:58:40;42.97;;;18.77;;
8247;SDS011;4164;49.844;8.830;2023-03-03T06:01:06;35.53;;;17.33;;
8247;SDS011;4164;49.844;8.830;2023-03-03T06:03:31;34.23;;;17.53;;
8247;SDS011;4164;49.844;8.830;2023-03-03T06:06:00;34.27;;;18.07;;
8247;SDS011;4164;49.844;8.830;2023-03-03T06:08:25;35.73;;;17.67;;
8247;SDS011;4164;49.844;8.830;2023-03-03T06:10:51;39.93;;;18.47;;
8247;SDS011;4164;49.844;8.830;2023-03-03T06:13:17;59.57;;;24.40;;
8247;SDS011;4164;49.844;8.830;2023-03-03T06:15:42;100.17;;;39.20;;
8247;SDS011;4164;49.844;8.830;2023-03-03T06:18:08;62.87;;;26.87;;
8247;SDS011;4164;49.844;8.830;2023-03-03T06:20:34;54.70;;;23.40;;
8247;SDS011;4164;49.844;8.830;2023-03-03T06:23:00;40.70;;;21.57;;
8247;SDS011;4164;49.844;8.830;2023-03-03T06:25:26;47.87;;;21.20;;
8247;SDS011;4164;49.844;8.830;2023-03-03T06:27:52;40.20;;;18.63;;
8247;SDS011;4164;49.844;8.830;2023-03-03T06:30:18;36.67;;;18.40;;
8247;SDS011;4164;49.844;8.830;2023-03-03T06:32:44;37.10;;;18.63;;
8247;SDS011;4164;49.844;8.830;2023-03-03T06:35:10;37.40;;;17.57;;
8247;SDS011;4164;49.844;8.830;2023-03-03T06:37:36;30.60;;;16.57;;
8247;SDS011;4164;49.844;8.830;2023-03-03T06:40:02;68.47;;;28.97;;
8247;SDS011;4164;49.844;8.830;2023-03-03T06:42:28;35.70;;;16.60;;
8247;SDS011;4164;49.844;8.830;2023-03-03T06:44:54;28.67;;;16.10;;
8247;SDS011;4164;49.844;8.830;2023-03-03T06:47:20;29.40;;;17.03;;
8247;SDS011;4164;49.844;8.830;2023-03-03T06:49:45;31.03;;;16.40;;
8247;SDS011;4164;49.844;8.830;2023-03-03T06:52:12;34.07;;;17.73;;
8247;SDS011;4164;49.844;8.830;2023-03-03T06:54:53;38.73;;;19.27;;
8247;SDS011;4164;49.844;8.830;2023-03-03T06:57:31;40.67;;;20.53;;
8247;SDS011;4164;49.844;8.830;2023-03-03T07:02:46;42.03;;;20.67;;
8247;SDS011;4164;49.844;8.830;2023-03-03T07:05:17;43.63;;;21.37;;
8247;SDS011;4164;49.844;8.830;2023-03-03T07:07:43;42.50;;;20.47;;
8247;SDS011;4164;49.844;8.830;2023-03-03T07:10:15;35.63;;;19.60;;
8247;SDS011;4164;49.844;8.830;2023-03-03T07:12:50;46.20;;;21.33;;
8247;SDS011;4164;49.844;8.830;2023-03-03T07:15:17;38.30;;;18.70;;
8247;SDS011;4164;49.844;8.830;2023-03-03T07:17:48;40.47;;;20.10;;
8247;SDS011;4164;49.844;8.830;2023-03-03T07:20:23;40.50;;;20.03;;
8247;SDS011;4164;49.844;8.830;2023-03-03T07:22:53;39.67;;;19.03;;
8247;SDS011;4164;49.844;8.830;2023-03-03T07:25:21;37.83;;;19.13;;
8247;SDS011;4164;49.844;8.830;2023-03-03T07:30:53;41.37;;;20.23;;
8247;SDS011;4164;49.844;8.830;2023-03-03T07:33:23;39.90;;;19.70;;
8247;SDS011;4164;49.844;8.830;2023-03-03T07:35:54;39.23;;;19.87;;
8247;SDS011;4164;49.844;8.830;2023-03-03T07:41:02;41.67;;;21.27;;
8247;SDS011;4164;49.844;8.830;2023-03-03T07:49:22;37.47;;;20.13;;
8247;SDS011;4164;49.844;8.830;2023-03-03T07:51:58;45.80;;;21.57;;
8247;SDS011;4164;49.844;8.830;2023-03-03T07:59:49;41.97;;;21.17;;
8247;SDS011;4164;49.844;8.830;2023-03-03T08:04:57;43.67;;;22.20;;
8247;SDS011;4164;49.844;8.830;2023-03-03T08:07:23;44.70;;;22.07;;
8247;SDS011;4164;49.844;8.830;2023-03-03T08:09:58;43.80;;;21.57;;
8247;SDS011;4164;49.844;8.830;2023-03-03T08:12:40;41.03;;;21.20;;
8247;SDS011;4164;49.844;8.830;2023-03-03T08:17:43;40.13;;;20.87;;
8247;SDS011;4164;49.844;8.830;2023-03-03T08:23:12;39.97;;;20.77;;
8247;SDS011;4164;49.844;8.830;2023-03-03T08:25:39;41.60;;;21.13;;
8247;SDS011;4164;49.844;8.830;2023-03-03T08:28:06;41.23;;;22.53;;
8247;SDS011;4164;49.844;8.830;2023-03-03T08:30:32;39.57;;;21.70;;
8247;SDS011;4164;49.844;8.830;2023-03-03T08:32:58;43.00;;;23.10;;
8247;SDS011;4164;49.844;8.830;2023-03-03T08:35:23;52.20;;;24.80;;
8247;SDS011;4164;49.844;8.830;2023-03-03T08:37:49;49.27;;;24.17;;
8247;SDS011;4164;49.844;8.830;2023-03-03T08:40:15;48.00;;;25.27;;
8247;SDS011;4164;49.844;8.830;2023-03-03T08:42:42;52.17;;;24.93;;
8247;SDS011;4164;49.844;8.830;2023-03-03T08:45:07;50.73;;;24.90;;
8247;SDS011;4164;49.844;8.830;2023-03-03T08:47:33;47.00;;;23.63;;
8247;SDS011;4164;49.844;8.830;2023-03-03T08:49:58;50.03;;;24.93;;
8247;SDS011;4164;49.844;8.830;2023-03-03T08:52:24;58.27;;;32.33;;
8247;SDS011;4164;49.844;8.830;2023-03-03T08:54:50;50.30;;;26.33;;
8247;SDS011;4164;49.844;8.830;2023-03-03T08:57:16;52.43;;;24.27;;
8247;SDS011;4164;49.844;8.830;2023-03-03T08:59:42;46.90;;;25.27;;
8247;SDS011;4164;49.844;8.830;2023-03-03T09:02:08;43.73;;;22.47;;
8247;SDS011;4164;49.844;8.830;2023-03-03T09:04:34;53.23;;;29.97;;
8247;SDS011;4164;49.844;8.830;2023-03-03T09:06:59;47.33;;;25.47;;
8247;SDS011;4164;49.844;8.830;2023-03-03T09:09:25;49.70;;;23.57;;
8247;SDS011;4164;49.844;8.830;2023-03-03T09:11:52;55.90;;;24.50;;
8247;SDS011;4164;49.844;8.830;2023-03-03T09:14:23;47.33;;;25.03;;
8247;SDS011;4164;49.844;8.830;2023-03-03T09:16:53;47.93;;;24.27;;
8247;SDS011;4164;49.844;8.830;2023-03-03T09:19:27;45.43;;;23.73;;
8247;SDS011;4164;49.844;8.830;2023-03-03T09:22:17;46.20;;;23.03;;
8247;SDS011;4164;49.844;8.830;2023-03-03T09:24:45;49.07;;;24.53;;
8247;SDS011;4164;49.844;8.830;2023-03-03T09:27:24;46.23;;;23.33;;
8247;SDS011;4164;49.844;8.830;2023-03-03T09:29:53;44.10;;;25.03;;
8247;SDS011;4164;49.844;8.830;2023-03-03T09:32:37;45.53;;;24.33;;
8247;SDS011;4164;49.844;8.830;2023-03-03T09:37:51;45.23;;;24.17;;
8247;SDS011;4164;49.844;8.830;2023-03-03T09:43:17;42.13;;;21.53;;
8247;SDS011;4164;49.844;8.830;2023-03-03T09:49:06;45.40;;;24.00;;
8247;SDS011;4164;49.844;8.830;2023-03-03T10:00:48;42.23;;;21.60;;
8247;SDS011;4164;49.844;8.830;2023-03-03T10:11:17;43.87;;;21.73;;
8247;SDS011;4164;49.844;8.830;2023-03-03T10:13:57;45.23;;;22.13;;
8247;SDS011;4164;49.844;8.830;2023-03-03T10:19:39;44.73;;;22.63;;
8247;SDS011;4164;49.844;8.830;2023-03-03T10:22:31;43.70;;;22.60;;
8247;SDS011;4164;49.844;8.830;2023-03-03T10:28:16;40.03;;;20.73;;
8247;SDS011;4164;49.844;8.830;2023-03-03T10:33:55;37.10;;;20.90;;
8247;SDS011;4164;49.844;8.830;2023-03-03T10:36:48;39.77;;;20.90;;
8247;SDS011;4164;49.844;8.830;2023-03-03T10:39:39;35.63;;;20.37;;
8247;SDS011;4164;49.844;8.830;2023-03-03T10:42:19;35.50;;;20.83;;
8247;SDS011;4164;49.844;8.830;2023-03-03T10:47:39;33.50;;;19.90;;
8247;SDS011;4164;49.844;8.830;2023-03-03T10:50:25;33.77;;;21.20;;
8247;SDS011;4164;49.844;8.830;2023-03-03T11:02:14;36.47;;;21.50;;
8247;SDS011;4164;49.844;8.830;2023-03-03T11:04:44;32.83;;;20.43;;
8247;SDS011;4164;49.844;8.830;2023-03-03T11:07:20;34.00;;;19.90;;
8247;SDS011;4164;49.844;8.830;2023-03-03T11:10:00;31.07;;;20.07;;
8247;SDS011;4164;49.844;8.830;2023-03-03T11:18:33;29.73;;;19.30;;
8247;SDS011;4164;49.844;8.830;2023-03-03T11:21:21;29.93;;;18.47;;
8247;SDS011;4164;49.844;8.830;2023-03-03T11:24:10;29.27;;;19.60;;
8247;SDS011;4164;49.844;8.830;2023-03-03T11:26:54;27.53;;;19.43;;
8247;SDS011;4164;49.844;8.830;2023-03-03T11:37:55;24.43;;;17.97;;
8247;SDS011;4164;49.844;8.830;2023-03-03T11:40:44;28.73;;;20.33;;
8247;SDS011;4164;49.844;8.830;2023-03-03T11:45:50;27.80;;;18.43;;
8247;SDS011;4164;49.844;8.830;2023-03-03T11:48:25;28.20;;;19.73;;
8247;SDS011;4164;49.844;8.830;2023-03-03T11:51:10;27.90;;;18.60;;
8247;SDS011;4164;49.844;8.830;2023-03-03T11:54:45;26.10;;;17.33;;
8247;SDS011;4164;49.844;8.830;2023-03-03T11:56:53;25.67;;;17.33;;
8247;SDS011;4164;49.844;8.830;2023-03-03T12:04:59;23.47;;;17.43;;
8247;SDS011;4164;49.844;8.830;2023-03-03T12:07:52;24.80;;;18.23;;
8247;SDS011;4164;49.844;8.830;2023-03-03T12:10:23;24.23;;;17.10;;
8247;SDS011;4164;49.844;8.830;2023-03-03T12:13:11;24.23;;;17.57;;
8247;SDS011;4164;49.844;8.830;2023-03-03T12:15:54;30.27;;;22.97;;
8247;SDS011;4164;49.844;8.830;2023-03-03T12:19:00;28.37;;;20.50;;
8247;SDS011;4164;49.844;8.830;2023-03-03T12:30:00;23.40;;;16.53;;
8247;SDS011;4164;49.844;8.830;2023-03-03T12:35:38;24.90;;;18.53;;
8247;SDS011;4164;49.844;8.830;2023-03-03T12:38:16;23.93;;;18.57;;
8247;SDS011;4164;49.844;8.830;2023-03-03T12:41:09;23.87;;;17.87;;
8247;SDS011;4164;49.844;8.830;2023-03-03T12:43:57;22.37;;;17.60;;
8247;SDS011;4164;49.844;8.830;2023-03-03T12:46:51;24.47;;;18.77;;
8247;SDS011;4164;49.844;8.830;2023-03-03T12:54:49;23.10;;;18.07;;
8247;SDS011;4164;49.844;8.830;2023-03-03T12:57:34;24.97;;;17.87;;
8247;SDS011;4164;49.844;8.830;2023-03-03T13:00:24;22.00;;;17.07;;
8247;SDS011;4164;49.844;8.830;2023-03-03T13:06:26;22.27;;;16.63;;
8247;SDS011;4164;49.844;8.830;2023-03-03T13:11:35;21.63;;;17.43;;
8247;SDS011;4164;49.844;8.830;2023-03-03T13:19:56;21.43;;;17.17;;
8247;SDS011;4164;49.844;8.830;2023-03-03T13:22:37;22.87;;;16.63;;
8247;SDS011;4164;49.844;8.830;2023-03-03T13:25:30;20.67;;;15.67;;
8247;SDS011;4164;49.844;8.830;2023-03-03T13:31:20;20.70;;;15.77;;
8247;SDS011;4164;49.844;8.830;2023-03-03T13:33:52;21.63;;;15.80;;
8247;SDS011;4164;49.844;8.830;2023-03-03T13:36:19;20.13;;;14.90;;
8247;SDS011;4164;49.844;8.830;2023-03-03T13:39:12;21.63;;;14.90;;
8247;SDS011;4164;49.844;8.830;2023-03-03T13:41:51;20.67;;;16.63;;
8247;SDS011;4164;49.844;8.830;2023-03-03T13:47:10;23.33;;;17.70;;
8247;SDS011;4164;49.844;8.830;2023-03-03T13:56:03;20.07;;;14.70;;
8247;SDS011;4164;49.844;8.830;2023-03-03T13:59:02;21.07;;;15.97;;
8247;SDS011;4164;49.844;8.830;2023-03-03T14:02:04;16.33;;;14.30;;
8247;SDS011;4164;49.844;8.830;2023-03-03T14:04:53;23.40;;;14.73;;
8247;SDS011;4164;49.844;8.830;2023-03-03T14:07:38;22.03;;;13.83;;
8247;SDS011;4164;49.844;8.830;2023-03-03T14:10:20;17.77;;;12.83;;
8247;SDS011;4164;49.844;8.830;2023-03-03T14:15:26;21.93;;;14.60;;
8247;SDS011;4164;49.844;8.830;2023-03-03T14:20:52;20.27;;;12.73;;
8247;SDS011;4164;49.844;8.830;2023-03-03T14:26:23;21.93;;;12.60;;
8247;SDS011;4164;49.844;8.830;2023-03-03T14:28:50;19.27;;;12.27;;
8247;SDS011;4164;49.844;8.830;2023-03-03T14:31:39;18.73;;;11.50;;
8247;SDS011;4164;49.844;8.830;2023-03-03T14:36:37;18.47;;;11.63;;
8247;SDS011;4164;49.844;8.830;2023-03-03T14:39:27;19.73;;;11.37;;
8247;SDS011;4164;49.844;8.830;2023-03-03T14:42:28;17.83;;;10.87;;
8247;SDS011;4164;49.844;8.830;2023-03-03T14:44:57;21.17;;;13.27;;
8247;SDS011;4164;49.844;8.830;2023-03-03T14:47:28;17.43;;;10.87;;
8247;SDS011;4164;49.844;8.830;2023-03-03T14:49:55;24.17;;;10.97;;
8247;SDS011;4164;49.844;8.830;2023-03-03T14:52:28;19.30;;;10.90;;
8247;SDS011;4164;49.844;8.830;2023-03-03T14:54:58;18.60;;;10.50;;
8247;SDS011;4164;49.844;8.830;2023-03-03T15:00:25;18.37;;;10.30;;
8247;SDS011;4164;49.844;8.830;2023-03-03T15:02:58;19.67;;;10.57;;
8247;SDS011;4164;49.844;8.830;2023-03-03T15:05:47;18.00;;;10.30;;
8247;SDS011;4164;49.844;8.830;2023-03-03T15:08:14;17.37;;;9.93;;
8247;SDS011;4164;49.844;8.830;2023-03-03T15:10:46;16.60;;;10.03;;
8247;SDS011;4164;49.844;8.830;2023-03-03T15:18:25;18.13;;;10.60;;
8247;SDS011;4164;49.844;8.830;2023-03-03T15:31:56;15.13;;;8.43;;
8247;SDS011;4164;49.844;8.830;2023-03-03T15:34:46;16.90;;;8.97;;
8247;SDS011;4164;49.844;8.830;2023-03-03T15:42:48;17.13;;;8.37;;
8247;SDS011;4164;49.844;8.830;2023-03-03T15:45:47;19.70;;;9.23;;
8247;SDS011;4164;49.844;8.830;2023-03-03T15:57:09;17.40;;;9.90;;
8247;SDS011;4164;49.844;8.830;2023-03-03T16:02:50;20.60;;;10.90;;
8247;SDS011;4164;49.844;8.830;2023-03-03T16:07:51;19.60;;;10.80;;
8247;SDS011;4164;49.844;8.830;2023-03-03T16:10:31;24.10;;;11.67;;
8247;SDS011;4164;49.844;8.830;2023-03-03T16:21:27;17.87;;;10.27;;
8247;SDS011;4164;49.844;8.830;2023-03-03T16:23:56;17.53;;;9.27;;
8247;SDS011;4164;49.844;8.830;2023-03-03T16:29:14;19.23;;;10.50;;
8247;SDS011;4164;49.844;8.830;2023-03-03T16:31:49;17.97;;;8.97;;
8247;SDS011;4164;49.844;8.830;2023-03-03T16:34:24;17.13;;;9.33;;
8247;SDS011;4164;49.844;8.830;2023-03-03T16:37:20;21.13;;;12.07;;
8247;SDS011;4164;49.844;8.830;2023-03-03T16:40:06;15.93;;;8.43;;
8247;SDS011;4164;49.844;8.830;2023-03-03T16:42:38;18.27;;;9.67;;
8247;SDS011;4164;49.844;8.830;2023-03-03T16:58:25;16.10;;;9.30;;
8247;SDS011;4164;49.844;8.830;2023-03-03T17:01:31;14.23;;;7.13;;
8247;SDS011;4164;49.844;8.830;2023-03-03T17:06:54;18.10;;;8.57;;
8247;SDS011;4164;49.844;8.830;2023-03-03T17:09:47;15.57;;;9.07;;
8247;SDS011;4164;49.844;8.830;2023-03-03T17:20:29;18.97;;;9.47;;
8247;SDS011;4164;49.844;8.830;2023-03-03T17:26:01;19.13;;;9.67;;
8247;SDS011;4164;49.844;8.830;2023-03-03T17:39:55;17.80;;;9.40;;
8247;SDS011;4164;49.844;8.830;2023-03-03T17:42:38;18.60;;;10.03;;
8247;SDS011;4164;49.844;8.830;2023-03-03T17:45:16;19.03;;;11.00;;
8247;SDS011;4164;49.844;8.830;2023-03-03T17:50:38;20.50;;;10.93;;
8247;SDS011;4164;49.844;8.830;2023-03-03T17:53:12;24.07;;;11.33;;
8247;SDS011;4164;49.844;8.830;2023-03-03T18:07:47;33.30;;;17.80;;
8247;SDS011;4164;49.844;8.830;2023-03-03T18:13:24;29.97;;;16.37;;
8247;SDS011;4164;49.844;8.830;2023-03-03T18:16:34;26.67;;;12.93;;
8247;SDS011;4164;49.844;8.830;2023-03-03T18:37:48;25.20;;;12.67;;
8247;SDS011;4164;49.844;8.830;2023-03-03T18:40:17;23.27;;;12.43;;
8247;SDS011;4164;49.844;8.830;2023-03-03T18:42:55;18.47;;;11.03;;
8247;SDS011;4164;49.844;8.830;2023-03-03T18:48:04;24.67;;;12.83;;
8247;SDS011;4164;49.844;8.830;2023-03-03T18:50:34;21.23;;;13.17;;
8247;SDS011;4164;49.844;8.830;2023-03-03T18:53:22;21.30;;;12.30;;
8247;SDS011;4164;49.844;8.830;2023-03-03T18:55:54;23.30;;;12.10;;
8247;SDS011;4164;49.844;8.830;2023-03-03T19:01:29;23.67;;;13.23;;
8247;SDS011;4164;49.844;8.830;2023-03-03T19:04:02;25.00;;;13.30;;
8247;SDS011;4164;49.844;8.830;2023-03-03T19:09:10;29.13;;;15.40;;
8247;SDS011;4164;49.844;8.830;2023-03-03T19:11:48;28.53;;;14.73;;
8247;SDS011;4164;49.844;8.830;2023-03-03T19:16:55;22.23;;;12.90;;
8247;SDS011;4164;49.844;8.830;2023-03-03T19:19:29;21.27;;;12.20;;
8247;SDS011;4164;49.844;8.830;2023-03-03T19:22:20;19.77;;;11.13;;
8247;SDS011;4164;49.844;8.830;2023-03-03T19:36:17;30.47;;;16.00;;
8247;SDS011;4164;49.844;8.830;2023-03-03T19:41:51;31.90;;;14.70;;
8247;SDS011;4164;49.844;8.830;2023-03-03T19:44:28;22.53;;;11.13;;
8247;SDS011;4164;49.844;8.830;2023-03-03T19:52:43;30.13;;;15.77;;
8247;SDS011;4164;49.844;8.830;2023-03-03T19:55:14;28.63;;;14.37;;
8247;SDS011;4164;49.844;8.830;2023-03-03T20:00:22;36.87;;;23.10;;
8247;SDS011;4164;49.844;8.830;2023-03-03T20:08:51;26.63;;;13.07;;
8247;SDS011;4164;49.844;8.830;2023-03-03T20:11:32;21.20;;;11.70;;
8247;SDS011;4164;49.844;8.830;2023-03-03T20:14:24;19.53;;;10.67;;
8247;SDS011;4164;49.844;8.830;2023-03-03T20:16:56;20.10;;;11.13;;
8247;SDS011;4164;49.844;8.830;2023-03-03T20:31:02;25.40;;;13.23;;
8247;SDS011;4164;49.844;8.830;2023-03-03T20:42:23;38.27;;;17.83;;
8247;SDS011;4164;49.844;8.830;2023-03-03T20:47:32;33.63;;;17.20;;
8247;SDS011;4164;49.844;8.830;2023-03-03T20:50:17;30.03;;;15.77;;
8247;SDS011;4164;49.844;8.830;2023-03-03T20:58:36;32.07;;;16.63;;
8247;SDS011;4164;49.844;8.830;2023-03-03T21:01:42;39.00;;;17.30;;
8247;SDS011;4164;49.844;8.830;2023-03-03T21:04:24;39.40;;;18.53;;
8247;SDS011;4164;49.844;8.830;2023-03-03T21:06:52;49.90;;;21.73;;
8247;SDS011;4164;49.844;8.830;2023-03-03T21:09:27;44.10;;;18.90;;
8247;SDS011;4164;49.844;8.830;2023-03-03T21:12:08;79.73;;;29.27;;
8247;SDS011;4164;49.844;8.830;2023-03-03T21:15:01;43.57;;;18.20;;
8247;SDS011;4164;49.844;8.830;2023-03-03T21:17:46;33.67;;;15.10;;
8247;SDS011;4164;49.844;8.830;2023-03-03T21:22:44;47.97;;;19.93;;